sensor_id;sensor_type;location;lat;lon;timestamp;temperature;humidity
47765;DHT22;33529;49.242;8.670;2023-03-01T00:01:08;0.20;99.90
47765;DHT22;33529;49.242;8.670;2023-03-01T00:03:35;0.20;99.90
47765;DHT22;33529;49.242;8.670;2023-03-01T00:06:03;0.30;99.90
47765;DHT22;33529;49.242;8.670;2023-03-01T00:08:31;0.20;99.90
47765;DHT22;33529;49.242;8.670;2023-03-01T00:11:20;0.10;99.90
47765;DHT22;33529;49.242;8.670;2023-03-01T00:13:50;0.10;99.90
47765;DHT22;33529;49.242;8.670;2023-03-01T00:16:29;0.20;99.90
47765;DHT22;33529;49.242;8.670;2023-03-01T00:18:57;0.10;99.90
47765;DHT22;33529;49.242;8.670;2023-03-01T00:21:24;0.00;99.90
47765;DHT22;33529;49.242;8.670;2023-03-01T00:23:51;0.10;99.90
47765;DHT22;33529;49.242;8.670;2023-03-01T00:26:20;0.00;99.90
47765;DHT22;33529;49.242;8.670;2023-03-01T00:28:48;0.00;99.90
47765;DHT22;33529;49.242;8.670;2023-03-01T00:31:17;-0.10;99.90
47765;DHT22;33529;49.242;8.670;2023-03-01T00:33:44;-0.20;99.90
47765;DHT22;33529;49.242;8.670;2023-03-01T00:36:13;-0.20;99.90
47765;DHT22;33529;49.242;8.670;2023-03-01T00:38:43;-0.20;99.90
47765;DHT22;33529;49.242;8.670;2023-03-01T00:41:14;-0.10;99.90
47765;DHT22;33529;49.242;8.670;2023-03-01T00:43:41;-0.10;99.90
47765;DHT22;33529;49.242;8.670;2023-03-01T00:46:11;-0.10;99.90
47765;DHT22;33529;49.242;8.670;2023-03-01T00:48:38;-0.10;99.90
47765;DHT22;33529;49.242;8.670;2023-03-01T00:53:33;-0.10;99.90
47765;DHT22;33529;49.242;8.670;2023-03-01T00:56:01;-0.10;99.90
47765;DHT22;33529;49.242;8.670;2023-03-01T00:58:27;-0.10;99.90
47765;DHT22;33529;49.242;8.670;2023-03-01T01:00:54;-0.10;99.90
47765;DHT22;33529;49.242;8.670;2023-03-01T01:03:22;-0.10;99.90
47765;DHT22;33529;49.242;8.670;2023-03-01T01:05:51;-0.20;99.90
47765;DHT22;33529;49.242;8.670;2023-03-01T01:08:19;-0.20;99.90
47765;DHT22;33529;49.242;8.670;2023-03-01T01:10:47;-0.20;99.90
47765;DHT22;33529;49.242;8.670;2023-03-01T01:13:13;-0.20;99.90
47765;DHT22;33529;49.242;8.670;2023-03-01T01:15:40;-0.20;99.90
47765;DHT22;33529;49.242;8.670;2023-03-01T01:18:07;-0.20;99.90
47765;DHT22;33529;49.242;8.670;2023-03-01T01:20:35;-0.30;99.90
47765;DHT22;33529;49.242;8.670;2023-03-01T01:23:05;-0.30;99.90
47765;DHT22;33529;49.242;8.670;2023-03-01T01:25:34;-0.30;99.90
47765;DHT22;33529;49.242;8.670;2023-03-01T01:28:01;-0.30;99.90
47765;DHT22;33529;49.242;8.670;2023-03-01T01:30:28;-0.40;99.90
47765;DHT22;33529;49.242;8.670;2023-03-01T01:32:58;-0.40;99.90
47765;DHT22;33529;49.242;8.670;2023-03-01T01:35:25;-0.30;99.90
47765;DHT22;33529;49.242;8.670;2023-03-01T01:37:52;-0.30;99.90
47765;DHT22;33529;49.242;8.670;2023-03-01T01:40:19;-0.30;99.90
47765;DHT22;33529;49.242;8.670;2023-03-01T01:42:46;-0.40;99.90
47765;DHT22;33529;49.242;8.670;2023-03-01T01:45:40;-0.30;99.90
47765;DHT22;33529;49.242;8.670;2023-03-01T01:48:14;-0.50;99.90
47765;DHT22;33529;49.242;8.670;2023-03-01T01:50:42;-0.50;99.90
47765;DHT22;33529;49.242;8.670;2023-03-01T01:53:15;-0.50;99.90
47765;DHT22;33529;49.242;8.670;2023-03-01T01:55:46;-0.50;99.90
47765;DHT22;33529;49.242;8.670;2023-03-01T01:58:17;-0.60;99.90
47765;DHT22;33529;49.242;8.670;2023-03-01T02:00:45;-0.50;99.90
47765;DHT22;33529;49.242;8.670;2023-03-01T02:03:15;-0.50;99.90
47765;DHT22;33529;49.242;8.670;2023-03-01T02:06:33;-0.50;99.90
47765;DHT22;33529;49.242;8.670;2023-03-01T02:08:42;-0.50;99.90
47765;DHT22;33529;49.242;8.670;2023-03-01T02:11:10;-0.50;99.90
47765;DHT22;33529;49.242;8.670;2023-03-01T02:13:37;-0.40;99.90
47765;DHT22;33529;49.242;8.670;2023-03-01T02:16:08;-0.40;99.90
47765;DHT22;33529;49.242;8.670;2023-03-01T02:18:37;-0.40;99.90
47765;DHT22;33529;49.242;8.670;2023-03-01T02:21:27;-0.40;99.90
47765;DHT22;33529;49.242;8.670;2023-03-01T02:23:56;-0.40;99.90
47765;DHT22;33529;49.242;8.670;2023-03-01T02:26:42;-0.50;99.90
47765;DHT22;33529;49.242;8.670;2023-03-01T02:29:11;-0.40;99.90
47765;DHT22;33529;49.242;8.670;2023-03-01T02:31:38;-0.40;99.90
47765;DHT22;33529;49.242;8.670;2023-03-01T02:36:44;-0.50;99.90
47765;DHT22;33529;49.242;8.670;2023-03-01T02:39:15;-0.50;99.90
47765;DHT22;33529;49.242;8.670;2023-03-01T02:41:47;-0.50;99.90
47765;DHT22;33529;49.242;8.670;2023-03-01T02:44:16;-0.50;99.90
47765;DHT22;33529;49.242;8.670;2023-03-01T02:46:48;-0.50;99.90
47765;DHT22;33529;49.242;8.670;2023-03-01T02:49:27;-0.50;99.90
47765;DHT22;33529;49.242;8.670;2023-03-01T02:54:58;-0.50;99.90
47765;DHT22;33529;49.242;8.670;2023-03-01T02:57:27;-0.50;99.90
47765;DHT22;33529;49.242;8.670;2023-03-01T02:59:57;-0.40;99.90
47765;DHT22;33529;49.242;8.670;2023-03-01T03:02:28;-0.40;99.90
47765;DHT22;33529;49.242;8.670;2023-03-01T03:05:13;-0.40;99.90
47765;DHT22;33529;49.242;8.670;2023-03-01T03:07:42;-0.50;99.90
47765;DHT22;33529;49.242;8.670;2023-03-01T03:10:13;-0.40;99.90
47765;DHT22;33529;49.242;8.670;2023-03-01T03:12:41;-0.50;99.90
47765;DHT22;33529;49.242;8.670;2023-03-01T03:15:10;-0.50;99.90
47765;DHT22;33529;49.242;8.670;2023-03-01T03:17:40;-0.50;99.90
47765;DHT22;33529;49.242;8.670;2023-03-01T03:20:10;-0.60;99.90
47765;DHT22;33529;49.242;8.670;2023-03-01T03:22:39;-0.60;99.90
47765;DHT22;33529;49.242;8.670;2023-03-01T03:25:08;-0.50;99.90
47765;DHT22;33529;49.242;8.670;2023-03-01T03:27:38;-0.60;99.90
47765;DHT22;33529;49.242;8.670;2023-03-01T03:30:07;-0.50;99.90
47765;DHT22;33529;49.242;8.670;2023-03-01T03:32:36;-0.50;99.90
47765;DHT22;33529;49.242;8.670;2023-03-01T03:35:04;-0.60;99.90
47765;DHT22;33529;49.242;8.670;2023-03-01T03:37:39;-0.50;99.90
47765;DHT22;33529;49.242;8.670;2023-03-01T03:40:25;-0.50;99.90
47765;DHT22;33529;49.242;8.670;2023-03-01T03:42:52;-0.60;99.90
47765;DHT22;33529;49.242;8.670;2023-03-01T03:45:19;-0.60;99.90
47765;DHT22;33529;49.242;8.670;2023-03-01T03:47:46;-0.60;99.90
47765;DHT22;33529;49.242;8.670;2023-03-01T03:50:15;-0.60;99.90
47765;DHT22;33529;49.242;8.670;2023-03-01T03:52:43;-0.70;99.90
47765;DHT22;33529;49.242;8.670;2023-03-01T03:55:12;-0.70;99.90
47765;DHT22;33529;49.242;8.670;2023-03-01T03:57:40;-0.70;99.90
47765;DHT22;33529;49.242;8.670;2023-03-01T04:00:10;-0.70;99.90
47765;DHT22;33529;49.242;8.670;2023-03-01T04:02:41;-0.70;99.90
47765;DHT22;33529;49.242;8.670;2023-03-01T04:05:10;-0.70;99.90
47765;DHT22;33529;49.242;8.670;2023-03-01T04:07:38;-0.70;99.90
47765;DHT22;33529;49.242;8.670;2023-03-01T04:10:08;-0.70;99.90
47765;DHT22;33529;49.242;8.670;2023-03-01T04:12:35;-0.70;99.90
47765;DHT22;33529;49.242;8.670;2023-03-01T04:15:07;-0.80;99.90
47765;DHT22;33529;49.242;8.670;2023-03-01T04:17:41;-0.80;99.90
47765;DHT22;33529;49.242;8.670;2023-03-01T04:20:17;-0.70;99.90
47765;DHT22;33529;49.242;8.670;2023-03-01T04:22:44;-0.70;99.90
47765;DHT22;33529;49.242;8.670;2023-03-01T04:25:14;-0.70;99.90
47765;DHT22;33529;49.242;8.670;2023-03-01T04:27:41;-0.70;99.90
47765;DHT22;33529;49.242;8.670;2023-03-01T04:30:10;-0.70;99.90
47765;DHT22;33529;49.242;8.670;2023-03-01T04:32:37;-0.70;99.90
47765;DHT22;33529;49.242;8.670;2023-03-01T04:35:04;-0.80;99.90
47765;DHT22;33529;49.242;8.670;2023-03-01T04:37:31;-0.80;99.90
47765;DHT22;33529;49.242;8.670;2023-03-01T04:39:58;-0.80;99.90
47765;DHT22;33529;49.242;8.670;2023-03-01T04:42:25;-0.70;99.90
47765;DHT22;33529;49.242;8.670;2023-03-01T04:44:52;-0.70;99.90
47765;DHT22;33529;49.242;8.670;2023-03-01T04:47:19;-0.80;99.90
47765;DHT22;33529;49.242;8.670;2023-03-01T04:49:45;-0.80;99.90
47765;DHT22;33529;49.242;8.670;2023-03-01T04:52:12;-0.80;99.90
47765;DHT22;33529;49.242;8.670;2023-03-01T04:54:39;-0.80;99.90
47765;DHT22;33529;49.242;8.670;2023-03-01T04:57:05;-0.80;99.90
47765;DHT22;33529;49.242;8.670;2023-03-01T04:59:32;-0.80;99.90
47765;DHT22;33529;49.242;8.670;2023-03-01T05:01:59;-0.80;99.90
47765;DHT22;33529;49.242;8.670;2023-03-01T05:04:26;-0.80;99.90
47765;DHT22;33529;49.242;8.670;2023-03-01T05:06:53;-0.70;99.90
47765;DHT22;33529;49.242;8.670;2023-03-01T05:09:20;-0.70;99.90
47765;DHT22;33529;49.242;8.670;2023-03-01T05:11:47;-0.70;99.90
47765;DHT22;33529;49.242;8.670;2023-03-01T05:14:13;-0.70;99.90
47765;DHT22;33529;49.242;8.670;2023-03-01T05:16:40;-0.70;99.90
47765;DHT22;33529;49.242;8.670;2023-03-01T05:19:07;-0.70;99.90
47765;DHT22;33529;49.242;8.670;2023-03-01T05:21:42;-0.70;99.90
47765;DHT22;33529;49.242;8.670;2023-03-01T05:24:30;-0.70;99.90
47765;DHT22;33529;49.242;8.670;2023-03-01T05:26:57;-0.80;99.90
47765;DHT22;33529;49.242;8.670;2023-03-01T05:29:25;-0.80;99.90
47765;DHT22;33529;49.242;8.670;2023-03-01T05:31:54;-0.80;99.90
47765;DHT22;33529;49.242;8.670;2023-03-01T05:34:26;-0.80;99.90
47765;DHT22;33529;49.242;8.670;2023-03-01T05:36:54;-0.90;99.90
47765;DHT22;33529;49.242;8.670;2023-03-01T05:39:22;-0.80;99.90
47765;DHT22;33529;49.242;8.670;2023-03-01T05:41:53;-0.90;99.90
47765;DHT22;33529;49.242;8.670;2023-03-01T05:44:20;-1.00;99.90
47765;DHT22;33529;49.242;8.670;2023-03-01T05:46:48;-0.90;99.90
47765;DHT22;33529;49.242;8.670;2023-03-01T05:49:15;-0.90;99.90
47765;DHT22;33529;49.242;8.670;2023-03-01T05:51:45;-0.90;99.90
47765;DHT22;33529;49.242;8.670;2023-03-01T05:54:14;-0.80;99.90
47765;DHT22;33529;49.242;8.670;2023-03-01T05:56:40;-0.90;99.90
47765;DHT22;33529;49.242;8.670;2023-03-01T05:59:07;-0.90;99.90
47765;DHT22;33529;49.242;8.670;2023-03-01T06:01:35;-0.90;99.90
47765;DHT22;33529;49.242;8.670;2023-03-01T06:04:03;-0.90;99.90
47765;DHT22;33529;49.242;8.670;2023-03-01T06:06:33;-0.80;99.90
47765;DHT22;33529;49.242;8.670;2023-03-01T06:09:01;-0.90;99.90
47765;DHT22;33529;49.242;8.670;2023-03-01T06:11:27;-0.90;99.90
47765;DHT22;33529;49.242;8.670;2023-03-01T06:13:54;-0.90;99.90
47765;DHT22;33529;49.242;8.670;2023-03-01T06:16:21;-0.80;99.90
47765;DHT22;33529;49.242;8.670;2023-03-01T06:18:48;-0.90;99.90
47765;DHT22;33529;49.242;8.670;2023-03-01T06:21:15;-0.90;99.90
47765;DHT22;33529;49.242;8.670;2023-03-01T06:23:41;-1.00;99.90
47765;DHT22;33529;49.242;8.670;2023-03-01T06:26:09;-1.00;99.90
47765;DHT22;33529;49.242;8.670;2023-03-01T06:28:36;-1.00;99.90
47765;DHT22;33529;49.242;8.670;2023-03-01T06:31:02;-1.00;99.90
47765;DHT22;33529;49.242;8.670;2023-03-01T06:33:30;-1.00;99.90
47765;DHT22;33529;49.242;8.670;2023-03-01T06:35:56;-0.90;99.90
47765;DHT22;33529;49.242;8.670;2023-03-01T06:38:24;-0.90;99.90
47765;DHT22;33529;49.242;8.670;2023-03-01T06:40:54;-0.90;99.90
47765;DHT22;33529;49.242;8.670;2023-03-01T06:43:23;-0.90;99.90
47765;DHT22;33529;49.242;8.670;2023-03-01T06:45:50;-0.80;99.90
47765;DHT22;33529;49.242;8.670;2023-03-01T06:48:18;-0.80;99.90
47765;DHT22;33529;49.242;8.670;2023-03-01T06:50:45;-0.80;99.90
47765;DHT22;33529;49.242;8.670;2023-03-01T06:53:11;-0.70;99.90
47765;DHT22;33529;49.242;8.670;2023-03-01T06:55:38;-0.70;99.90
47765;DHT22;33529;49.242;8.670;2023-03-01T06:58:05;-0.70;99.90
47765;DHT22;33529;49.242;8.670;2023-03-01T07:00:32;-0.70;99.90
47765;DHT22;33529;49.242;8.670;2023-03-01T07:03:00;-0.60;99.90
47765;DHT22;33529;49.242;8.670;2023-03-01T07:05:29;-0.50;99.90
47765;DHT22;33529;49.242;8.670;2023-03-01T07:07:56;-0.50;99.90
47765;DHT22;33529;49.242;8.670;2023-03-01T07:10:23;-0.40;99.90
47765;DHT22;33529;49.242;8.670;2023-03-01T07:12:53;-0.40;99.90
47765;DHT22;33529;49.242;8.670;2023-03-01T07:15:20;-0.30;99.90
47765;DHT22;33529;49.242;8.670;2023-03-01T07:17:47;-0.30;99.90
47765;DHT22;33529;49.242;8.670;2023-03-01T07:20:18;-0.30;99.90
47765;DHT22;33529;49.242;8.670;2023-03-01T07:22:45;-0.20;99.90
47765;DHT22;33529;49.242;8.670;2023-03-01T07:25:12;-0.20;99.90
47765;DHT22;33529;49.242;8.670;2023-03-01T07:27:39;-0.10;99.90
47765;DHT22;33529;49.242;8.670;2023-03-01T07:30:07;-0.10;99.90
47765;DHT22;33529;49.242;8.670;2023-03-01T07:32:35;0.00;99.90
47765;DHT22;33529;49.242;8.670;2023-03-01T07:35:02;0.00;99.90
47765;DHT22;33529;49.242;8.670;2023-03-01T07:37:29;0.00;99.90
47765;DHT22;33529;49.242;8.670;2023-03-01T07:39:56;0.10;99.90
47765;DHT22;33529;49.242;8.670;2023-03-01T07:42:24;0.10;99.90
47765;DHT22;33529;49.242;8.670;2023-03-01T07:44:50;0.20;99.90
47765;DHT22;33529;49.242;8.670;2023-03-01T07:47:17;0.20;99.90
47765;DHT22;33529;49.242;8.670;2023-03-01T07:49:44;0.30;99.90
47765;DHT22;33529;49.242;8.670;2023-03-01T07:52:11;0.40;99.90
47765;DHT22;33529;49.242;8.670;2023-03-01T07:54:38;0.50;99.90
47765;DHT22;33529;49.242;8.670;2023-03-01T07:57:05;0.50;99.90
47765;DHT22;33529;49.242;8.670;2023-03-01T07:59:32;0.50;99.90
47765;DHT22;33529;49.242;8.670;2023-03-01T08:01:59;0.60;99.90
47765;DHT22;33529;49.242;8.670;2023-03-01T08:04:26;0.60;99.90
47765;DHT22;33529;49.242;8.670;2023-03-01T08:06:54;0.70;99.90
47765;DHT22;33529;49.242;8.670;2023-03-01T08:09:21;0.80;99.90
47765;DHT22;33529;49.242;8.670;2023-03-01T08:11:48;0.80;99.90
47765;DHT22;33529;49.242;8.670;2023-03-01T08:14:15;0.90;99.90
47765;DHT22;33529;49.242;8.670;2023-03-01T08:16:42;0.90;99.90
47765;DHT22;33529;49.242;8.670;2023-03-01T08:19:11;1.00;99.90
47765;DHT22;33529;49.242;8.670;2023-03-01T08:21:38;1.10;99.90
47765;DHT22;33529;49.242;8.670;2023-03-01T08:24:05;1.20;99.90
47765;DHT22;33529;49.242;8.670;2023-03-01T08:26:33;1.20;99.90
47765;DHT22;33529;49.242;8.670;2023-03-01T08:29:00;1.30;99.90
47765;DHT22;33529;49.242;8.670;2023-03-01T08:31:38;1.30;99.90
47765;DHT22;33529;49.242;8.670;2023-03-01T08:34:08;1.30;99.90
47765;DHT22;33529;49.242;8.670;2023-03-01T08:36:42;1.40;99.90
47765;DHT22;33529;49.242;8.670;2023-03-01T08:39:12;1.50;99.90
47765;DHT22;33529;49.242;8.670;2023-03-01T08:41:39;1.50;99.90
47765;DHT22;33529;49.242;8.670;2023-03-01T08:44:06;1.60;99.90
47765;DHT22;33529;49.242;8.670;2023-03-01T08:46:36;1.70;99.90
47765;DHT22;33529;49.242;8.670;2023-03-01T08:49:05;1.60;99.90
47765;DHT22;33529;49.242;8.670;2023-03-01T08:51:33;1.70;99.90
47765;DHT22;33529;49.242;8.670;2023-03-01T08:54:09;1.70;99.90
47765;DHT22;33529;49.242;8.670;2023-03-01T08:56:36;1.80;99.90
47765;DHT22;33529;49.242;8.670;2023-03-01T08:59:03;1.90;99.90
47765;DHT22;33529;49.242;8.670;2023-03-01T09:01:31;1.90;99.90
47765;DHT22;33529;49.242;8.670;2023-03-01T09:03:57;2.00;99.90
47765;DHT22;33529;49.242;8.670;2023-03-01T09:06:24;2.00;99.90
47765;DHT22;33529;49.242;8.670;2023-03-01T09:08:51;2.10;99.90
47765;DHT22;33529;49.242;8.670;2023-03-01T09:11:20;2.10;99.90
47765;DHT22;33529;49.242;8.670;2023-03-01T09:13:48;2.10;99.90
47765;DHT22;33529;49.242;8.670;2023-03-01T09:16:17;2.30;99.90
47765;DHT22;33529;49.242;8.670;2023-03-01T09:18:44;2.40;99.90
47765;DHT22;33529;49.242;8.670;2023-03-01T09:21:15;2.40;99.90
47765;DHT22;33529;49.242;8.670;2023-03-01T09:23:47;2.40;99.90
47765;DHT22;33529;49.242;8.670;2023-03-01T09:26:19;2.50;99.90
47765;DHT22;33529;49.242;8.670;2023-03-01T09:28:51;2.60;99.90
47765;DHT22;33529;49.242;8.670;2023-03-01T09:31:20;2.50;99.90
47765;DHT22;33529;49.242;8.670;2023-03-01T09:33:48;2.70;99.90
47765;DHT22;33529;49.242;8.670;2023-03-01T09:36:17;2.70;99.90
47765;DHT22;33529;49.242;8.670;2023-03-01T09:38:45;2.80;99.90
47765;DHT22;33529;49.242;8.670;2023-03-01T09:46:44;3.00;99.90
47765;DHT22;33529;49.242;8.670;2023-03-01T09:49:27;3.10;99.90
47765;DHT22;33529;49.242;8.670;2023-03-01T09:52:12;3.20;99.90
47765;DHT22;33529;49.242;8.670;2023-03-01T09:54:41;3.30;99.90
47765;DHT22;33529;49.242;8.670;2023-03-01T09:57:18;3.40;99.90
47765;DHT22;33529;49.242;8.670;2023-03-01T10:00:04;3.40;99.90
47765;DHT22;33529;49.242;8.670;2023-03-01T10:02:46;3.40;99.90
47765;DHT22;33529;49.242;8.670;2023-03-01T10:10:38;3.50;99.90
47765;DHT22;33529;49.242;8.670;2023-03-01T10:15:48;3.60;99.90
47765;DHT22;33529;49.242;8.670;2023-03-01T10:18:20;3.70;99.90
47765;DHT22;33529;49.242;8.670;2023-03-01T10:20:58;3.80;99.90
47765;DHT22;33529;49.242;8.670;2023-03-01T10:23:29;3.80;99.90
47765;DHT22;33529;49.242;8.670;2023-03-01T10:29:02;3.80;99.90
47765;DHT22;33529;49.242;8.670;2023-03-01T10:31:46;4.00;99.90
47765;DHT22;33529;49.242;8.670;2023-03-01T10:34:37;4.10;99.90
47765;DHT22;33529;49.242;8.670;2023-03-01T10:37:17;4.10;99.90
47765;DHT22;33529;49.242;8.670;2023-03-01T10:43:01;4.20;99.90
47765;DHT22;33529;49.242;8.670;2023-03-01T10:45:31;4.20;99.90
47765;DHT22;33529;49.242;8.670;2023-03-01T10:50:47;4.40;99.90
47765;DHT22;33529;49.242;8.670;2023-03-01T10:53:40;4.40;99.90
47765;DHT22;33529;49.242;8.670;2023-03-01T10:58:37;4.40;99.90
47765;DHT22;33529;49.242;8.670;2023-03-01T11:01:29;4.40;99.90
47765;DHT22;33529;49.242;8.670;2023-03-01T11:06:32;4.50;99.90
47765;DHT22;33529;49.242;8.670;2023-03-01T11:09:32;4.60;99.90
47765;DHT22;33529;49.242;8.670;2023-03-01T11:12:13;4.80;99.90
47765;DHT22;33529;49.242;8.670;2023-03-01T11:14:47;4.80;99.80
47765;DHT22;33529;49.242;8.670;2023-03-01T11:23:03;5.00;99.40
47765;DHT22;33529;49.242;8.670;2023-03-01T11:25:36;5.00;99.00
47765;DHT22;33529;49.242;8.670;2023-03-01T11:28:06;5.00;99.60
47765;DHT22;33529;49.242;8.670;2023-03-01T11:30:41;5.10;99.90
47765;DHT22;33529;49.242;8.670;2023-03-01T11:38:57;5.40;98.90
47765;DHT22;33529;49.242;8.670;2023-03-01T11:41:32;5.30;98.10
47765;DHT22;33529;49.242;8.670;2023-03-01T11:44:14;5.30;98.80
47765;DHT22;33529;49.242;8.670;2023-03-01T11:47:19;5.40;98.70
47765;DHT22;33529;49.242;8.670;2023-03-01T11:52:43;5.40;97.90
47765;DHT22;33529;49.242;8.670;2023-03-01T12:09:07;5.80;98.00
47765;DHT22;33529;49.242;8.670;2023-03-01T12:17:25;6.00;96.80
47765;DHT22;33529;49.242;8.670;2023-03-01T12:22:31;6.10;97.20
47765;DHT22;33529;49.242;8.670;2023-03-01T12:27:41;6.10;97.00
47765;DHT22;33529;49.242;8.670;2023-03-01T12:30:19;6.10;96.50
47765;DHT22;33529;49.242;8.670;2023-03-01T12:32:52;6.00;96.50
47765;DHT22;33529;49.242;8.670;2023-03-01T12:44:22;6.30;97.70
47765;DHT22;33529;49.242;8.670;2023-03-01T12:49:46;6.50;95.50
47765;DHT22;33529;49.242;8.670;2023-03-01T12:54:53;6.50;95.80
47765;DHT22;33529;49.242;8.670;2023-03-01T12:57:51;6.60;96.30
47765;DHT22;33529;49.242;8.670;2023-03-01T13:06:21;6.90;95.70
47765;DHT22;33529;49.242;8.670;2023-03-01T13:09:05;6.90;95.70
47765;DHT22;33529;49.242;8.670;2023-03-01T13:11:34;6.80;95.50
47765;DHT22;33529;49.242;8.670;2023-03-01T13:16:47;6.90;95.10
47765;DHT22;33529;49.242;8.670;2023-03-01T13:19:26;6.90;95.10
47765;DHT22;33529;49.242;8.670;2023-03-01T13:21:55;6.90;95.40
47765;DHT22;33529;49.242;8.670;2023-03-01T13:29:52;7.20;95.30
47765;DHT22;33529;49.242;8.670;2023-03-01T13:32:23;7.20;95.20
47765;DHT22;33529;49.242;8.670;2023-03-01T13:37:45;7.30;94.90
47765;DHT22;33529;49.242;8.670;2023-03-01T13:42:48;7.20;94.30
47765;DHT22;33529;49.242;8.670;2023-03-01T13:45:38;7.20;94.60
47765;DHT22;33529;49.242;8.670;2023-03-01T13:48:24;7.20;94.20
47765;DHT22;33529;49.242;8.670;2023-03-01T13:50:54;7.30;94.30
47765;DHT22;33529;49.242;8.670;2023-03-01T13:53:24;7.20;94.70
47765;DHT22;33529;49.242;8.670;2023-03-01T13:55:55;7.30;94.80
47765;DHT22;33529;49.242;8.670;2023-03-01T13:58:28;7.30;95.10
47765;DHT22;33529;49.242;8.670;2023-03-01T14:01:04;7.30;95.20
47765;DHT22;33529;49.242;8.670;2023-03-01T14:03:33;7.30;94.50
47765;DHT22;33529;49.242;8.670;2023-03-01T14:06:01;7.40;94.50
47765;DHT22;33529;49.242;8.670;2023-03-01T14:08:40;7.40;94.30
47765;DHT22;33529;49.242;8.670;2023-03-01T14:14:19;7.50;94.20
47765;DHT22;33529;49.242;8.670;2023-03-01T14:17:28;7.50;94.50
47765;DHT22;33529;49.242;8.670;2023-03-01T14:20:07;7.50;94.80
47765;DHT22;33529;49.242;8.670;2023-03-01T14:22:36;7.60;94.20
47765;DHT22;33529;49.242;8.670;2023-03-01T14:25:21;7.60;94.60
47765;DHT22;33529;49.242;8.670;2023-03-01T14:30:31;7.60;94.60
47765;DHT22;33529;49.242;8.670;2023-03-01T14:33:02;7.50;94.60
47765;DHT22;33529;49.242;8.670;2023-03-01T14:35:35;7.50;95.10
47765;DHT22;33529;49.242;8.670;2023-03-01T14:38:03;7.50;94.90
47765;DHT22;33529;49.242;8.670;2023-03-01T14:40:35;7.50;94.80
47765;DHT22;33529;49.242;8.670;2023-03-01T14:43:11;7.40;94.40
47765;DHT22;33529;49.242;8.670;2023-03-01T14:45:38;7.40;95.40
47765;DHT22;33529;49.242;8.670;2023-03-01T14:48:06;7.50;94.50
47765;DHT22;33529;49.242;8.670;2023-03-01T14:50:35;7.60;94.90
47765;DHT22;33529;49.242;8.670;2023-03-01T14:53:05;7.60;94.80
47765;DHT22;33529;49.242;8.670;2023-03-01T14:55:41;7.50;94.80
47765;DHT22;33529;49.242;8.670;2023-03-01T14:58:17;7.50;94.60
47765;DHT22;33529;49.242;8.670;2023-03-01T15:00:57;7.40;94.60
47765;DHT22;33529;49.242;8.670;2023-03-01T15:03:35;7.50;94.70
47765;DHT22;33529;49.242;8.670;2023-03-01T15:06:05;7.40;94.90
47765;DHT22;33529;49.242;8.670;2023-03-01T15:08:34;7.50;94.30
47765;DHT22;33529;49.242;8.670;2023-03-01T15:13:35;7.50;94.30
47765;DHT22;33529;49.242;8.670;2023-03-01T15:18:38;7.40;94.50
47765;DHT22;33529;49.242;8.670;2023-03-01T15:21:18;7.50;94.70
47765;DHT22;33529;49.242;8.670;2023-03-01T15:23:53;7.40;94.60
47765;DHT22;33529;49.242;8.670;2023-03-01T15:26:23;7.40;94.50
47765;DHT22;33529;49.242;8.670;2023-03-01T15:28:52;7.40;94.70
47765;DHT22;33529;49.242;8.670;2023-03-01T15:31:31;7.30;95.00
47765;DHT22;33529;49.242;8.670;2023-03-01T15:36:47;7.30;94.70
47765;DHT22;33529;49.242;8.670;2023-03-01T15:39:53;7.30;94.90
47765;DHT22;33529;49.242;8.670;2023-03-01T15:48:17;7.20;95.10
47765;DHT22;33529;49.242;8.670;2023-03-01T15:50:57;7.10;94.90
47765;DHT22;33529;49.242;8.670;2023-03-01T15:53:26;7.10;94.80
47765;DHT22;33529;49.242;8.670;2023-03-01T15:55:54;7.10;94.90
47765;DHT22;33529;49.242;8.670;2023-03-01T15:58:23;7.10;94.80
47765;DHT22;33529;49.242;8.670;2023-03-01T16:00:51;7.10;94.50
47765;DHT22;33529;49.242;8.670;2023-03-01T16:03:28;7.10;94.90
47765;DHT22;33529;49.242;8.670;2023-03-01T16:05:55;7.10;94.90
47765;DHT22;33529;49.242;8.670;2023-03-01T16:08:22;7.00;95.20
47765;DHT22;33529;49.242;8.670;2023-03-01T16:10:49;7.00;95.20
47765;DHT22;33529;49.242;8.670;2023-03-01T16:13:18;7.00;94.80
47765;DHT22;33529;49.242;8.670;2023-03-01T16:15:44;7.00;94.80
47765;DHT22;33529;49.242;8.670;2023-03-01T16:18:11;6.90;95.10
47765;DHT22;33529;49.242;8.670;2023-03-01T16:20:39;7.00;94.60
47765;DHT22;33529;49.242;8.670;2023-03-01T16:23:07;6.90;95.00
47765;DHT22;33529;49.242;8.670;2023-03-01T16:25:35;6.90;94.70
47765;DHT22;33529;49.242;8.670;2023-03-01T16:28:03;6.90;94.90
47765;DHT22;33529;49.242;8.670;2023-03-01T16:30:39;6.90;95.10
47765;DHT22;33529;49.242;8.670;2023-03-01T16:33:06;6.80;95.00
47765;DHT22;33529;49.242;8.670;2023-03-01T16:35:53;6.70;94.90
47765;DHT22;33529;49.242;8.670;2023-03-01T16:38:21;6.70;94.90
47765;DHT22;33529;49.242;8.670;2023-03-01T16:40:49;6.70;95.50
47765;DHT22;33529;49.242;8.670;2023-03-01T16:43:17;6.60;95.50
47765;DHT22;33529;49.242;8.670;2023-03-01T16:45:43;6.60;95.50
47765;DHT22;33529;49.242;8.670;2023-03-01T16:48:12;6.60;95.50
47765;DHT22;33529;49.242;8.670;2023-03-01T16:50:39;6.50;95.90
47765;DHT22;33529;49.242;8.670;2023-03-01T16:53:06;6.50;95.80
47765;DHT22;33529;49.242;8.670;2023-03-01T16:55:33;6.40;95.70
47765;DHT22;33529;49.242;8.670;2023-03-01T16:58:00;6.40;95.60
47765;DHT22;33529;49.242;8.670;2023-03-01T17:00:27;6.30;95.80
47765;DHT22;33529;49.242;8.670;2023-03-01T17:02:54;6.30;95.80
47765;DHT22;33529;49.242;8.670;2023-03-01T17:05:22;6.30;95.90
47765;DHT22;33529;49.242;8.670;2023-03-01T17:07:50;6.20;96.60
47765;DHT22;33529;49.242;8.670;2023-03-01T17:10:17;6.10;96.50
47765;DHT22;33529;49.242;8.670;2023-03-01T17:12:48;6.00;96.40
47765;DHT22;33529;49.242;8.670;2023-03-01T17:15:14;6.00;96.40
47765;DHT22;33529;49.242;8.670;2023-03-01T17:17:41;5.90;96.90
47765;DHT22;33529;49.242;8.670;2023-03-01T17:20:08;5.80;96.80
47765;DHT22;33529;49.242;8.670;2023-03-01T17:22:36;5.80;97.10
47765;DHT22;33529;49.242;8.670;2023-03-01T17:25:03;5.80;97.30
47765;DHT22;33529;49.242;8.670;2023-03-01T17:27:30;5.70;97.60
47765;DHT22;33529;49.242;8.670;2023-03-01T17:30:01;5.60;97.30
47765;DHT22;33529;49.242;8.670;2023-03-01T17:32:28;5.60;97.50
47765;DHT22;33529;49.242;8.670;2023-03-01T17:34:55;5.60;97.70
47765;DHT22;33529;49.242;8.670;2023-03-01T17:37:22;5.50;98.00
47765;DHT22;33529;49.242;8.670;2023-03-01T17:39:49;5.40;98.00
47765;DHT22;33529;49.242;8.670;2023-03-01T17:42:16;5.40;97.90
47765;DHT22;33529;49.242;8.670;2023-03-01T17:44:43;5.40;98.10
47765;DHT22;33529;49.242;8.670;2023-03-01T17:47:10;5.30;98.20
47765;DHT22;33529;49.242;8.670;2023-03-01T17:49:38;5.30;98.20
47765;DHT22;33529;49.242;8.670;2023-03-01T17:52:05;5.20;98.70
47765;DHT22;33529;49.242;8.670;2023-03-01T17:54:32;5.20;98.50
47765;DHT22;33529;49.242;8.670;2023-03-01T17:56:59;5.20;98.60
47765;DHT22;33529;49.242;8.670;2023-03-01T17:59:27;5.10;98.80
47765;DHT22;33529;49.242;8.670;2023-03-01T18:01:59;5.10;98.80
47765;DHT22;33529;49.242;8.670;2023-03-01T18:04:28;5.00;98.90
47765;DHT22;33529;49.242;8.670;2023-03-01T18:06:55;5.00;99.10
47765;DHT22;33529;49.242;8.670;2023-03-01T18:09:21;5.00;98.90